sensor_id;sensor_type;location;lat;lon;timestamp;P1;durP1;ratioP1;P2;durP2;ratioP2
40745;SDS011;26454;51.164;4.488;2023-08-01T00:01:30;10.38;;;9.10;;
40745;SDS011;26454;51.164;4.488;2023-08-01T00:03:56;11.60;;;8.75;;
40745;SDS011;26454;51.164;4.488;2023-08-01T00:06:22;13.93;;;10.00;;
40745;SDS011;26454;51.164;4.488;2023-08-01T00:08:50;11.60;;;9.23;;
40745;SDS011;26454;51.164;4.488;2023-08-01T00:11:16;12.82;;;10.20;;
40745;SDS011;26454;51.164;4.488;2023-08-01T00:13:42;14.32;;;11.10;;
40745;SDS011;26454;51.164;4.488;2023-08-01T00:16:08;16.35;;;12.40;;
40745;SDS011;26454;51.164;4.488;2023-08-01T00:18:34;15.35;;;12.60;;
40745;SDS011;26454;51.164;4.488;2023-08-01T00:21:00;12.93;;;10.80;;
40745;SDS011;26454;51.164;4.488;2023-08-01T00:23:27;16.73;;;12.88;;
40745;SDS011;26454;51.164;4.488;2023-08-01T00:25:53;17.38;;;13.00;;
40745;SDS011;26454;51.164;4.488;2023-08-01T00:28:19;18.10;;;13.88;;
40745;SDS011;26454;51.164;4.488;2023-08-01T00:30:45;19.33;;;13.57;;
40745;SDS011;26454;51.164;4.488;2023-08-01T00:33:11;22.48;;;14.23;;
40745;SDS011;26454;51.164;4.488;2023-08-01T00:35:38;23.05;;;15.73;;
40745;SDS011;26454;51.164;4.488;2023-08-01T00:38:04;25.80;;;13.60;;
40745;SDS011;26454;51.164;4.488;2023-08-01T00:40:31;19.23;;;13.75;;
40745;SDS011;26454;51.164;4.488;2023-08-01T00:42:57;20.58;;;14.40;;
40745;SDS011;26454;51.164;4.488;2023-08-01T00:45:24;18.45;;;14.80;;
40745;SDS011;26454;51.164;4.488;2023-08-01T00:47:50;26.88;;;19.00;;
40745;SDS011;26454;51.164;4.488;2023-08-01T00:50:17;25.15;;;16.45;;
40745;SDS011;26454;51.164;4.488;2023-08-01T00:52:45;24.48;;;16.50;;
40745;SDS011;26454;51.164;4.488;2023-08-01T00:55:11;31.30;;;16.45;;
40745;SDS011;26454;51.164;4.488;2023-08-01T00:57:37;22.58;;;17.38;;
40745;SDS011;26454;51.164;4.488;2023-08-01T01:00:03;22.20;;;16.50;;
40745;SDS011;26454;51.164;4.488;2023-08-01T01:02:29;30.20;;;17.60;;
40745;SDS011;26454;51.164;4.488;2023-08-01T01:04:55;31.45;;;18.08;;
40745;SDS011;26454;51.164;4.488;2023-08-01T01:07:22;26.52;;;16.75;;
40745;SDS011;26454;51.164;4.488;2023-08-01T01:09:49;32.00;;;18.05;;
40745;SDS011;26454;51.164;4.488;2023-08-01T01:12:15;25.13;;;17.92;;
40745;SDS011;26454;51.164;4.488;2023-08-01T01:14:41;34.05;;;17.73;;
40745;SDS011;26454;51.164;4.488;2023-08-01T01:17:07;26.05;;;18.15;;
40745;SDS011;26454;51.164;4.488;2023-08-01T01:19:33;30.67;;;18.48;;
40745;SDS011;26454;51.164;4.488;2023-08-01T01:21:59;28.92;;;16.13;;
40745;SDS011;26454;51.164;4.488;2023-08-01T01:24:26;27.05;;;16.13;;
40745;SDS011;26454;51.164;4.488;2023-08-01T01:26:53;27.08;;;16.48;;
40745;SDS011;26454;51.164;4.488;2023-08-01T01:29:20;26.73;;;17.20;;
40745;SDS011;26454;51.164;4.488;2023-08-01T01:31:47;22.52;;;15.82;;
40745;SDS011;26454;51.164;4.488;2023-08-01T01:34:13;28.90;;;16.02;;
40745;SDS011;26454;51.164;4.488;2023-08-01T01:36:39;32.78;;;17.83;;
40745;SDS011;26454;51.164;4.488;2023-08-01T01:39:05;23.17;;;16.63;;
40745;SDS011;26454;51.164;4.488;2023-08-01T01:41:31;22.92;;;15.48;;
40745;SDS011;26454;51.164;4.488;2023-08-01T01:43:57;22.55;;;16.52;;
40745;SDS011;26454;51.164;4.488;2023-08-01T01:46:23;24.75;;;15.23;;
40745;SDS011;26454;51.164;4.488;2023-08-01T01:48:49;27.65;;;16.98;;
40745;SDS011;26454;51.164;4.488;2023-08-01T01:51:15;24.63;;;16.52;;
40745;SDS011;26454;51.164;4.488;2023-08-01T01:53:41;26.73;;;18.02;;
40745;SDS011;26454;51.164;4.488;2023-08-01T01:56:07;28.50;;;19.80;;
40745;SDS011;26454;51.164;4.488;2023-08-01T01:58:33;24.48;;;16.92;;
40745;SDS011;26454;51.164;4.488;2023-08-01T02:00:59;25.92;;;18.15;;
40745;SDS011;26454;51.164;4.488;2023-08-01T02:03:25;27.52;;;18.13;;
40745;SDS011;26454;51.164;4.488;2023-08-01T02:05:51;30.85;;;20.33;;
40745;SDS011;26454;51.164;4.488;2023-08-01T02:08:17;25.42;;;16.83;;
40745;SDS011;26454;51.164;4.488;2023-08-01T02:10:43;22.63;;;15.57;;
40745;SDS011;26454;51.164;4.488;2023-08-01T02:13:09;26.02;;;18.23;;
40745;SDS011;26454;51.164;4.488;2023-08-01T02:15:35;23.58;;;18.67;;
40745;SDS011;26454;51.164;4.488;2023-08-01T02:18:01;23.55;;;16.02;;
40745;SDS011;26454;51.164;4.488;2023-08-01T02:20:27;28.02;;;16.08;;
40745;SDS011;26454;51.164;4.488;2023-08-01T02:22:54;31.02;;;18.83;;
40745;SDS011;26454;51.164;4.488;2023-08-01T02:25:20;29.60;;;18.02;;
40745;SDS011;26454;51.164;4.488;2023-08-01T02:27:46;31.90;;;18.75;;
40745;SDS011;26454;51.164;4.488;2023-08-01T02:30:12;26.65;;;16.05;;
40745;SDS011;26454;51.164;4.488;2023-08-01T02:32:38;21.70;;;16.42;;
40745;SDS011;26454;51.164;4.488;2023-08-01T02:35:04;26.50;;;16.42;;
40745;SDS011;26454;51.164;4.488;2023-08-01T02:37:30;28.77;;;17.40;;
40745;SDS011;26454;51.164;4.488;2023-08-01T02:39:56;28.55;;;16.88;;
40745;SDS011;26454;51.164;4.488;2023-08-01T02:42:22;29.40;;;17.35;;
40745;SDS011;26454;51.164;4.488;2023-08-01T02:44:48;25.83;;;17.70;;
40745;SDS011;26454;51.164;4.488;2023-08-01T02:47:14;34.70;;;18.25;;
40745;SDS011;26454;51.164;4.488;2023-08-01T02:49:40;27.52;;;18.55;;
40745;SDS011;26454;51.164;4.488;2023-08-01T02:52:06;31.52;;;18.83;;
40745;SDS011;26454;51.164;4.488;2023-08-01T02:54:32;26.15;;;18.30;;
40745;SDS011;26454;51.164;4.488;2023-08-01T02:56:58;31.33;;;19.00;;
40745;SDS011;26454;51.164;4.488;2023-08-01T02:59:24;27.83;;;17.73;;
40745;SDS011;26454;51.164;4.488;2023-08-01T03:01:50;26.45;;;17.48;;
40745;SDS011;26454;51.164;4.488;2023-08-01T03:04:16;28.20;;;19.63;;
40745;SDS011;26454;51.164;4.488;2023-08-01T03:06:42;29.73;;;18.52;;
40745;SDS011;26454;51.164;4.488;2023-08-01T03:09:08;25.80;;;17.55;;
40745;SDS011;26454;51.164;4.488;2023-08-01T03:11:35;29.35;;;19.13;;
40745;SDS011;26454;51.164;4.488;2023-08-01T03:14:02;28.77;;;18.20;;
40745;SDS011;26454;51.164;4.488;2023-08-01T03:16:29;31.70;;;20.15;;
40745;SDS011;26454;51.164;4.488;2023-08-01T03:18:55;28.30;;;19.75;;
40745;SDS011;26454;51.164;4.488;2023-08-01T03:21:21;25.58;;;19.33;;
40745;SDS011;26454;51.164;4.488;2023-08-01T03:23:47;25.73;;;18.80;;
40745;SDS011;26454;51.164;4.488;2023-08-01T03:26:13;33.85;;;21.73;;
40745;SDS011;26454;51.164;4.488;2023-08-01T03:28:40;33.55;;;19.95;;
40745;SDS011;26454;51.164;4.488;2023-08-01T03:31:06;34.53;;;19.88;;
40745;SDS011;26454;51.164;4.488;2023-08-01T03:33:32;31.65;;;18.40;;
40745;SDS011;26454;51.164;4.488;2023-08-01T03:35:59;27.80;;;19.17;;
40745;SDS011;26454;51.164;4.488;2023-08-01T03:38:25;34.30;;;20.65;;
40745;SDS011;26454;51.164;4.488;2023-08-01T03:40:51;36.15;;;19.73;;
40745;SDS011;26454;51.164;4.488;2023-08-01T03:43:17;33.35;;;22.75;;
40745;SDS011;26454;51.164;4.488;2023-08-01T03:45:48;31.25;;;21.00;;
40745;SDS011;26454;51.164;4.488;2023-08-01T03:48:14;35.65;;;21.70;;
40745;SDS011;26454;51.164;4.488;2023-08-01T03:50:40;31.65;;;21.85;;
40745;SDS011;26454;51.164;4.488;2023-08-01T03:53:06;36.08;;;21.05;;
40745;SDS011;26454;51.164;4.488;2023-08-01T03:55:32;32.20;;;22.25;;
40745;SDS011;26454;51.164;4.488;2023-08-01T03:57:59;37.42;;;22.00;;
40745;SDS011;26454;51.164;4.488;2023-08-01T04:00:25;37.60;;;21.58;;
40745;SDS011;26454;51.164;4.488;2023-08-01T04:02:57;36.10;;;23.83;;
40745;SDS011;26454;51.164;4.488;2023-08-01T04:05:23;39.17;;;22.27;;
40745;SDS011;26454;51.164;4.488;2023-08-01T04:07:49;36.40;;;23.23;;
40745;SDS011;26454;51.164;4.488;2023-08-01T04:10:15;36.40;;;23.48;;
40745;SDS011;26454;51.164;4.488;2023-08-01T04:12:41;34.72;;;23.48;;
40745;SDS011;26454;51.164;4.488;2023-08-01T04:15:09;39.72;;;22.92;;
40745;SDS011;26454;51.164;4.488;2023-08-01T04:17:35;38.20;;;23.40;;
40745;SDS011;26454;51.164;4.488;2023-08-01T04:20:01;35.40;;;22.50;;
40745;SDS011;26454;51.164;4.488;2023-08-01T04:22:27;38.70;;;21.92;;
40745;SDS011;26454;51.164;4.488;2023-08-01T04:24:53;35.95;;;22.42;;
40745;SDS011;26454;51.164;4.488;2023-08-01T04:27:19;38.13;;;22.95;;
40745;SDS011;26454;51.164;4.488;2023-08-01T04:29:45;33.97;;;22.08;;
40745;SDS011;26454;51.164;4.488;2023-08-01T04:32:11;32.92;;;20.38;;
40745;SDS011;26454;51.164;4.488;2023-08-01T04:34:39;30.55;;;20.13;;
40745;SDS011;26454;51.164;4.488;2023-08-01T04:37:05;40.42;;;22.15;;
40745;SDS011;26454;51.164;4.488;2023-08-01T04:39:31;34.20;;;20.45;;
40745;SDS011;26454;51.164;4.488;2023-08-01T04:41:57;36.22;;;21.23;;
40745;SDS011;26454;51.164;4.488;2023-08-01T04:44:23;30.10;;;20.75;;
40745;SDS011;26454;51.164;4.488;2023-08-01T04:46:49;29.40;;;18.77;;
40745;SDS011;26454;51.164;4.488;2023-08-01T04:49:15;35.90;;;19.65;;
40745;SDS011;26454;51.164;4.488;2023-08-01T04:51:41;31.15;;;16.35;;
40745;SDS011;26454;51.164;4.488;2023-08-01T04:54:06;24.27;;;18.38;;
40745;SDS011;26454;51.164;4.488;2023-08-01T04:56:32;29.48;;;17.67;;
40745;SDS011;26454;51.164;4.488;2023-08-01T04:58:58;28.92;;;17.83;;
40745;SDS011;26454;51.164;4.488;2023-08-01T05:01:26;25.65;;;16.40;;
40745;SDS011;26454;51.164;4.488;2023-08-01T05:03:52;30.08;;;16.08;;
40745;SDS011;26454;51.164;4.488;2023-08-01T05:06:18;26.00;;;14.23;;
40745;SDS011;26454;51.164;4.488;2023-08-01T05:08:44;25.13;;;15.13;;
40745;SDS011;26454;51.164;4.488;2023-08-01T05:11:10;24.13;;;15.07;;
40745;SDS011;26454;51.164;4.488;2023-08-01T05:13:36;21.67;;;13.80;;
40745;SDS011;26454;51.164;4.488;2023-08-01T05:16:02;25.65;;;15.13;;
40745;SDS011;26454;51.164;4.488;2023-08-01T05:18:28;21.92;;;13.60;;
40745;SDS011;26454;51.164;4.488;2023-08-01T05:20:54;25.88;;;13.45;;
40745;SDS011;26454;51.164;4.488;2023-08-01T05:23:20;25.50;;;14.75;;
40745;SDS011;26454;51.164;4.488;2023-08-01T05:25:46;28.10;;;13.40;;
40745;SDS011;26454;51.164;4.488;2023-08-01T05:28:12;20.77;;;12.27;;
40745;SDS011;26454;51.164;4.488;2023-08-01T05:30:40;18.90;;;12.50;;
40745;SDS011;26454;51.164;4.488;2023-08-01T05:33:06;27.58;;;13.30;;
40745;SDS011;26454;51.164;4.488;2023-08-01T05:35:32;23.60;;;13.07;;
40745;SDS011;26454;51.164;4.488;2023-08-01T05:37:58;20.42;;;12.57;;
40745;SDS011;26454;51.164;4.488;2023-08-01T05:40:24;24.95;;;12.90;;
40745;SDS011;26454;51.164;4.488;2023-08-01T05:42:50;22.13;;;12.00;;
40745;SDS011;26454;51.164;4.488;2023-08-01T05:45:16;20.65;;;11.63;;
40745;SDS011;26454;51.164;4.488;2023-08-01T05:47:42;25.48;;;11.52;;
40745;SDS011;26454;51.164;4.488;2023-08-01T05:50:09;24.15;;;12.30;;
40745;SDS011;26454;51.164;4.488;2023-08-01T05:52:35;24.48;;;12.90;;
40745;SDS011;26454;51.164;4.488;2023-08-01T05:55:01;22.48;;;11.80;;
40745;SDS011;26454;51.164;4.488;2023-08-01T05:57:27;21.20;;;11.10;;
40745;SDS011;26454;51.164;4.488;2023-08-01T05:59:53;25.80;;;11.73;;
40745;SDS011;26454;51.164;4.488;2023-08-01T06:02:19;20.10;;;11.73;;
40745;SDS011;26454;51.164;4.488;2023-08-01T06:04:45;19.48;;;11.27;;
40745;SDS011;26454;51.164;4.488;2023-08-01T06:07:11;23.13;;;11.15;;
40745;SDS011;26454;51.164;4.488;2023-08-01T06:09:37;21.25;;;11.65;;
40745;SDS011;26454;51.164;4.488;2023-08-01T06:12:03;19.60;;;11.43;;
40745;SDS011;26454;51.164;4.488;2023-08-01T06:14:29;29.48;;;12.02;;
40745;SDS011;26454;51.164;4.488;2023-08-01T06:16:55;22.67;;;11.25;;
40745;SDS011;26454;51.164;4.488;2023-08-01T06:19:21;17.40;;;11.70;;
40745;SDS011;26454;51.164;4.488;2023-08-01T06:21:47;17.77;;;10.88;;
40745;SDS011;26454;51.164;4.488;2023-08-01T06:24:13;22.00;;;10.85;;
40745;SDS011;26454;51.164;4.488;2023-08-01T06:26:39;15.63;;;9.70;;
40745;SDS011;26454;51.164;4.488;2023-08-01T06:29:05;16.98;;;9.45;;
40745;SDS011;26454;51.164;4.488;2023-08-01T06:31:31;16.80;;;10.07;;
40745;SDS011;26454;51.164;4.488;2023-08-01T06:33:57;23.75;;;10.00;;
40745;SDS011;26454;51.164;4.488;2023-08-01T06:36:23;22.10;;;10.70;;
40745;SDS011;26454;51.164;4.488;2023-08-01T06:38:49;18.83;;;9.93;;
40745;SDS011;26454;51.164;4.488;2023-08-01T06:41:15;22.10;;;11.10;;
40745;SDS011;26454;51.164;4.488;2023-08-01T06:43:41;15.43;;;9.52;;
40745;SDS011;26454;51.164;4.488;2023-08-01T06:46:07;20.95;;;10.77;;
40745;SDS011;26454;51.164;4.488;2023-08-01T06:48:34;20.48;;;10.02;;
40745;SDS011;26454;51.164;4.488;2023-08-01T06:51:01;18.95;;;11.43;;
40745;SDS011;26454;51.164;4.488;2023-08-01T06:53:28;18.45;;;10.98;;
40745;SDS011;26454;51.164;4.488;2023-08-01T06:55:54;14.13;;;10.65;;
40745;SDS011;26454;51.164;4.488;2023-08-01T06:58:20;21.63;;;10.00;;
40745;SDS011;26454;51.164;4.488;2023-08-01T07:00:46;14.20;;;10.77;;
40745;SDS011;26454;51.164;4.488;2023-08-01T07:03:12;16.45;;;10.68;;
40745;SDS011;26454;51.164;4.488;2023-08-01T07:05:38;21.58;;;10.98;;
40745;SDS011;26454;51.164;4.488;2023-08-01T07:08:04;21.40;;;10.95;;
40745;SDS011;26454;51.164;4.488;2023-08-01T07:10:30;20.38;;;10.13;;
40745;SDS011;26454;51.164;4.488;2023-08-01T07:12:59;19.27;;;9.95;;
40745;SDS011;26454;51.164;4.488;2023-08-01T07:15:28;16.97;;;9.83;;
40745;SDS011;26454;51.164;4.488;2023-08-01T07:17:54;23.70;;;9.57;;
40745;SDS011;26454;51.164;4.488;2023-08-01T07:20:21;15.70;;;9.85;;
40745;SDS011;26454;51.164;4.488;2023-08-01T07:22:47;15.80;;;9.15;;
40745;SDS011;26454;51.164;4.488;2023-08-01T07:25:13;16.50;;;8.77;;
40745;SDS011;26454;51.164;4.488;2023-08-01T07:27:40;12.02;;;8.40;;
40745;SDS011;26454;51.164;4.488;2023-08-01T07:30:06;22.90;;;9.65;;
40745;SDS011;26454;51.164;4.488;2023-08-01T07:32:32;14.73;;;8.25;;
40745;SDS011;26454;51.164;4.488;2023-08-01T07:34:58;16.38;;;8.23;;
40745;SDS011;26454;51.164;4.488;2023-08-01T07:37:24;14.07;;;7.40;;
40745;SDS011;26454;51.164;4.488;2023-08-01T07:39:53;16.42;;;7.10;;
40745;SDS011;26454;51.164;4.488;2023-08-01T07:42:19;13.18;;;7.97;;
40745;SDS011;26454;51.164;4.488;2023-08-01T07:44:45;13.13;;;7.57;;
40745;SDS011;26454;51.164;4.488;2023-08-01T07:47:11;12.05;;;7.20;;
40745;SDS011;26454;51.164;4.488;2023-08-01T07:49:37;14.05;;;5.95;;
40745;SDS011;26454;51.164;4.488;2023-08-01T07:52:03;13.80;;;6.10;;
40745;SDS011;26454;51.164;4.488;2023-08-01T07:54:29;12.18;;;6.57;;
40745;SDS011;26454;51.164;4.488;2023-08-01T07:56:55;12.52;;;6.15;;
40745;SDS011;26454;51.164;4.488;2023-08-01T07:59:21;15.93;;;6.85;;
40745;SDS011;26454;51.164;4.488;2023-08-01T08:01:47;11.43;;;5.80;;
40745;SDS011;26454;51.164;4.488;2023-08-01T08:04:13;12.30;;;6.85;;
40745;SDS011;26454;51.164;4.488;2023-08-01T08:06:40;17.33;;;7.20;;
40745;SDS011;26454;51.164;4.488;2023-08-01T08:09:06;13.68;;;5.80;;
40745;SDS011;26454;51.164;4.488;2023-08-01T08:11:32;10.98;;;6.72;;
40745;SDS011;26454;51.164;4.488;2023-08-01T08:13:58;15.07;;;6.18;;
40745;SDS011;26454;51.164;4.488;2023-08-01T08:16:24;15.02;;;6.57;;
40745;SDS011;26454;51.164;4.488;2023-08-01T08:18:51;13.85;;;5.75;;
40745;SDS011;26454;51.164;4.488;2023-08-01T08:21:17;10.70;;;4.90;;
40745;SDS011;26454;51.164;4.488;2023-08-01T08:23:43;10.27;;;5.68;;
40745;SDS011;26454;51.164;4.488;2023-08-01T08:26:09;13.95;;;5.70;;
40745;SDS011;26454;51.164;4.488;2023-08-01T08:28:35;14.75;;;5.75;;
40745;SDS011;26454;51.164;4.488;2023-08-01T08:31:01;13.30;;;5.70;;
40745;SDS011;26454;51.164;4.488;2023-08-01T08:33:28;10.90;;;5.20;;
40745;SDS011;26454;51.164;4.488;2023-08-01T08:35:54;9.13;;;4.97;;
40745;SDS011;26454;51.164;4.488;2023-08-01T08:38:20;13.45;;;5.38;;
40745;SDS011;26454;51.164;4.488;2023-08-01T08:40:48;12.98;;;5.30;;
40745;SDS011;26454;51.164;4.488;2023-08-01T08:43:18;12.77;;;4.90;;
40745;SDS011;26454;51.164;4.488;2023-08-01T08:45:44;12.85;;;6.18;;
40745;SDS011;26454;51.164;4.488;2023-08-01T08:48:12;13.20;;;5.72;;
40745;SDS011;26454;51.164;4.488;2023-08-01T08:50:39;15.98;;;6.03;;
40745;SDS011;26454;51.164;4.488;2023-08-01T08:53:06;9.50;;;5.57;;
40745;SDS011;26454;51.164;4.488;2023-08-01T08:55:37;12.82;;;5.53;;
40745;SDS011;26454;51.164;4.488;2023-08-01T08:58:04;12.25;;;5.93;;
40745;SDS011;26454;51.164;4.488;2023-08-01T09:00:30;13.43;;;4.93;;
40745;SDS011;26454;51.164;4.488;2023-08-01T09:02:57;14.95;;;4.93;;
40745;SDS011;26454;51.164;4.488;2023-08-01T09:05:24;9.57;;;5.10;;
40745;SDS011;26454;51.164;4.488;2023-08-01T09:07:52;12.15;;;4.97;;
40745;SDS011;26454;51.164;4.488;2023-08-01T09:10:20;7.95;;;4.00;;
40745;SDS011;26454;51.164;4.488;2023-08-01T09:12:46;11.68;;;4.30;;
40745;SDS011;26454;51.164;4.488;2023-08-01T09:15:12;13.30;;;4.43;;
40745;SDS011;26454;51.164;4.488;2023-08-01T09:20:15;10.98;;;3.95;;
40745;SDS011;26454;51.164;4.488;2023-08-01T09:22:42;12.52;;;4.22;;
40745;SDS011;26454;51.164;4.488;2023-08-01T09:25:09;9.48;;;4.13;;
40745;SDS011;26454;51.164;4.488;2023-08-01T09:27:35;12.52;;;4.57;;
40745;SDS011;26454;51.164;4.488;2023-08-01T09:30:04;6.45;;;3.95;;
40745;SDS011;26454;51.164;4.488;2023-08-01T09:32:30;7.78;;;3.30;;
40745;SDS011;26454;51.164;4.488;2023-08-01T09:34:58;11.25;;;3.38;;
40745;SDS011;26454;51.164;4.488;2023-08-01T09:37:25;8.32;;;3.08;;
40745;SDS011;26454;51.164;4.488;2023-08-01T09:39:54;7.03;;;3.70;;
40745;SDS011;26454;51.164;4.488;2023-08-01T09:44:46;9.20;;;3.80;;
40745;SDS011;26454;51.164;4.488;2023-08-01T09:47:12;11.63;;;3.55;;
40745;SDS011;26454;51.164;4.488;2023-08-01T09:49:47;9.13;;;3.83;;
40745;SDS011;26454;51.164;4.488;2023-08-01T09:52:14;8.52;;;4.13;;
40745;SDS011;26454;51.164;4.488;2023-08-01T09:54:39;6.90;;;3.22;;
40745;SDS011;26454;51.164;4.488;2023-08-01T09:57:06;9.50;;;3.97;;
40745;SDS011;26454;51.164;4.488;2023-08-01T09:59:32;9.55;;;3.05;;
40745;SDS011;26454;51.164;4.488;2023-08-01T10:01:59;8.50;;;3.47;;
40745;SDS011;26454;51.164;4.488;2023-08-01T10:04:27;9.88;;;3.92;;
40745;SDS011;26454;51.164;4.488;2023-08-01T10:06:58;12.00;;;3.72;;
40745;SDS011;26454;51.164;4.488;2023-08-01T10:11:50;11.70;;;3.13;;
40745;SDS011;26454;51.164;4.488;2023-08-01T10:14:17;7.70;;;3.60;;
40745;SDS011;26454;51.164;4.488;2023-08-01T10:16:43;10.77;;;3.58;;
40745;SDS011;26454;51.164;4.488;2023-08-01T10:19:09;8.70;;;3.03;;
40745;SDS011;26454;51.164;4.488;2023-08-01T10:21:37;8.63;;;3.53;;
40745;SDS011;26454;51.164;4.488;2023-08-01T10:24:03;6.47;;;4.05;;
40745;SDS011;26454;51.164;4.488;2023-08-01T10:26:31;8.18;;;3.30;;
40745;SDS011;26454;51.164;4.488;2023-08-01T10:28:57;3.88;;;2.47;;
40745;SDS011;26454;51.164;4.488;2023-08-01T10:31:25;6.25;;;2.85;;
40745;SDS011;26454;51.164;4.488;2023-08-01T10:33:51;7.90;;;2.50;;
40745;SDS011;26454;51.164;4.488;2023-08-01T10:36:18;8.15;;;3.05;;
40745;SDS011;26454;51.164;4.488;2023-08-01T10:38:46;7.00;;;2.53;;
40745;SDS011;26454;51.164;4.488;2023-08-01T10:41:24;9.80;;;3.13;;
40745;SDS011;26454;51.164;4.488;2023-08-01T10:43:50;10.07;;;2.83;;
40745;SDS011;26454;51.164;4.488;2023-08-01T10:46:17;9.02;;;3.17;;
40745;SDS011;26454;51.164;4.488;2023-08-01T10:48:47;5.03;;;2.65;;
40745;SDS011;26454;51.164;4.488;2023-08-01T10:51:13;6.47;;;2.75;;
40745;SDS011;26454;51.164;4.488;2023-08-01T10:53:41;8.35;;;2.70;;
40745;SDS011;26454;51.164;4.488;2023-08-01T10:56:07;10.55;;;2.78;;
40745;SDS011;26454;51.164;4.488;2023-08-01T10:58:34;6.57;;;2.85;;
40745;SDS011;26454;51.164;4.488;2023-08-01T11:01:00;6.97;;;3.00;;
40745;SDS011;26454;51.164;4.488;2023-08-01T11:03:33;5.82;;;2.47;;
40745;SDS011;26454;51.164;4.488;2023-08-01T11:06:00;8.77;;;3.35;;
40745;SDS011;26454;51.164;4.488;2023-08-01T11:08:34;11.65;;;2.90;;
40745;SDS011;26454;51.164;4.488;2023-08-01T11:11:00;6.90;;;2.72;;
40745;SDS011;26454;51.164;4.488;2023-08-01T11:13:26;7.90;;;2.40;;
40745;SDS011;26454;51.164;4.488;2023-08-01T11:15:52;7.95;;;3.00;;
40745;SDS011;26454;51.164;4.488;2023-08-01T11:18:21;6.93;;;2.42;;
40745;SDS011;26454;51.164;4.488;2023-08-01T11:20:47;8.15;;;2.55;;
40745;SDS011;26454;51.164;4.488;2023-08-01T11:23:13;7.05;;;2.80;;
40745;SDS011;26454;51.164;4.488;2023-08-01T11:25:40;6.28;;;2.83;;
40745;SDS011;26454;51.164;4.488;2023-08-01T11:28:08;6.20;;;2.33;;
40745;SDS011;26454;51.164;4.488;2023-08-01T11:30:34;4.40;;;1.85;;
40745;SDS011;26454;51.164;4.488;2023-08-01T11:33:00;6.38;;;2.15;;
40745;SDS011;26454;51.164;4.488;2023-08-01T11:35:28;9.43;;;2.22;;
40745;SDS011;26454;51.164;4.488;2023-08-01T11:37:54;9.35;;;1.90;;
40745;SDS011;26454;51.164;4.488;2023-08-01T11:40:20;7.72;;;2.08;;
40745;SDS011;26454;51.164;4.488;2023-08-01T11:42:49;6.75;;;2.10;;
40745;SDS011;26454;51.164;4.488;2023-08-01T11:45:17;6.82;;;2.50;;
40745;SDS011;26454;51.164;4.488;2023-08-01T11:47:44;8.27;;;2.15;;
40745;SDS011;26454;51.164;4.488;2023-08-01T11:50:11;6.57;;;2.40;;
40745;SDS011;26454;51.164;4.488;2023-08-01T11:52:37;7.78;;;2.65;;
40745;SDS011;26454;51.164;4.488;2023-08-01T11:55:03;7.65;;;2.10;;
40745;SDS011;26454;51.164;4.488;2023-08-01T11:57:30;5.68;;;2.30;;
40745;SDS011;26454;51.164;4.488;2023-08-01T11:59:56;9.02;;;2.70;;
40745;SDS011;26454;51.164;4.488;2023-08-01T12:02:26;8.00;;;2.15;;
40745;SDS011;26454;51.164;4.488;2023-08-01T12:04:53;5.00;;;1.65;;
40745;SDS011;26454;51.164;4.488;2023-08-01T12:07:20;6.10;;;2.45;;
40745;SDS011;26454;51.164;4.488;2023-08-01T12:12:22;7.88;;;2.40;;
40745;SDS011;26454;51.164;4.488;2023-08-01T12:14:48;6.38;;;2.65;;
40745;SDS011;26454;51.164;4.488;2023-08-01T12:17:15;5.18;;;1.85;;
40745;SDS011;26454;51.164;4.488;2023-08-01T12:19:41;6.25;;;1.77;;
40745;SDS011;26454;51.164;4.488;2023-08-01T12:22:07;6.05;;;1.95;;
40745;SDS011;26454;51.164;4.488;2023-08-01T12:24:33;4.97;;;1.90;;
40745;SDS011;26454;51.164;4.488;2023-08-01T12:27:02;7.15;;;2.45;;
40745;SDS011;26454;51.164;4.488;2023-08-01T12:29:28;8.52;;;2.50;;
40745;SDS011;26454;51.164;4.488;2023-08-01T12:31:54;6.10;;;1.80;;
40745;SDS011;26454;51.164;4.488;2023-08-01T12:34:20;8.75;;;2.65;;
40745;SDS011;26454;51.164;4.488;2023-08-01T12:36:46;4.35;;;2.20;;
40745;SDS011;26454;51.164;4.488;2023-08-01T12:39:12;5.43;;;2.10;;
40745;SDS011;26454;51.164;4.488;2023-08-01T12:41:39;7.75;;;2.10;;
40745;SDS011;26454;51.164;4.488;2023-08-01T12:44:05;6.22;;;2.40;;
40745;SDS011;26454;51.164;4.488;2023-08-01T12:46:31;5.55;;;2.22;;
40745;SDS011;26454;51.164;4.488;2023-08-01T12:48:57;7.53;;;1.90;;
40745;SDS011;26454;51.164;4.488;2023-08-01T12:51:23;5.30;;;1.83;;
40745;SDS011;26454;51.164;4.488;2023-08-01T12:53:49;4.20;;;1.88;;
40745;SDS011;26454;51.164;4.488;2023-08-01T12:56:15;3.53;;;1.60;;
40745;SDS011;26454;51.164;4.488;2023-08-01T12:58:41;3.67;;;1.80;;
40745;SDS011;26454;51.164;4.488;2023-08-01T13:01:07;7.40;;;1.77;;
40745;SDS011;26454;51.164;4.488;2023-08-01T13:03:33;5.68;;;1.70;;
40745;SDS011;26454;51.164;4.488;2023-08-01T13:05:59;4.32;;;2.38;;
40745;SDS011;26454;51.164;4.488;2023-08-01T13:08:25;4.72;;;1.73;;
40745;SDS011;26454;51.164;4.488;2023-08-01T13:10:51;3.30;;;1.83;;
40745;SDS011;26454;51.164;4.488;2023-08-01T13:13:17;4.97;;;1.73;;
40745;SDS011;26454;51.164;4.488;2023-08-01T13:15:43;4.00;;;1.92;;
40745;SDS011;26454;51.164;4.488;2023-08-01T13:18:09;7.13;;;1.70;;
40745;SDS011;26454;51.164;4.488;2023-08-01T13:20:36;4.50;;;2.05;;
40745;SDS011;26454;51.164;4.488;2023-08-01T13:23:02;4.47;;;1.77;;
40745;SDS011;26454;51.164;4.488;2023-08-01T13:25:28;5.10;;;1.52;;
40745;SDS011;26454;51.164;4.488;2023-08-01T13:27:54;6.45;;;1.88;;
40745;SDS011;26454;51.164;4.488;2023-08-01T13:30:21;6.63;;;1.98;;
40745;SDS011;26454;51.164;4.488;2023-08-01T13:32:47;4.88;;;2.88;;
40745;SDS011;26454;51.164;4.488;2023-08-01T13:35:13;4.43;;;1.95;;
40745;SDS011;26454;51.164;4.488;2023-08-01T13:37:39;3.88;;;1.70;;
40745;SDS011;26454;51.164;4.488;2023-08-01T13:40:05;5.15;;;1.80;;
40745;SDS011;26454;51.164;4.488;2023-08-01T13:42:31;6.63;;;2.20;;
40745;SDS011;26454;51.164;4.488;2023-08-01T13:44:58;5.07;;;2.10;;
40745;SDS011;26454;51.164;4.488;2023-08-01T13:47:25;5.38;;;2.20;;
40745;SDS011;26454;51.164;4.488;2023-08-01T13:49:51;7.68;;;2.08;;
40745;SDS011;26454;51.164;4.488;2023-08-01T13:52:17;5.35;;;1.92;;
40745;SDS011;26454;51.164;4.488;2023-08-01T13:54:43;3.72;;;2.03;;
40745;SDS011;26454;51.164;4.488;2023-08-01T13:57:09;6.10;;;2.08;;
40745;SDS011;26454;51.164;4.488;2023-08-01T13:59:35;3.58;;;1.50;;
40745;SDS011;26454;51.164;4.488;2023-08-01T14:02:01;4.43;;;1.73;;
40745;SDS011;26454;51.164;4.488;2023-08-01T14:04:28;3.17;;;1.77;;
40745;SDS011;26454;51.164;4.488;2023-08-01T14:06:54;7.10;;;1.92;;
40745;SDS011;26454;51.164;4.488;2023-08-01T14:09:20;4.15;;;1.95;;
40745;SDS011;26454;51.164;4.488;2023-08-01T14:11:46;6.03;;;2.22;;
40745;SDS011;26454;51.164;4.488;2023-08-01T14:14:12;4.50;;;1.80;;
40745;SDS011;26454;51.164;4.488;2023-08-01T14:16:38;5.50;;;2.20;;
40745;SDS011;26454;51.164;4.488;2023-08-01T14:19:04;4.13;;;2.30;;
40745;SDS011;26454;51.164;4.488;2023-08-01T14:21:31;4.53;;;1.92;;
40745;SDS011;26454;51.164;4.488;2023-08-01T14:23:57;5.63;;;1.73;;
40745;SDS011;26454;51.164;4.488;2023-08-01T14:26:23;4.07;;;1.83;;
40745;SDS011;26454;51.164;4.488;2023-08-01T14:28:49;6.32;;;2.28;;
40745;SDS011;26454;51.164;4.488;2023-08-01T14:31:15;5.25;;;2.47;;
40745;SDS011;26454;51.164;4.488;2023-08-01T14:33:41;4.70;;;1.80;;
40745;SDS011;26454;51.164;4.488;2023-08-01T14:36:08;7.32;;;2.40;;
40745;SDS011;26454;51.164;4.488;2023-08-01T14:38:34;8.80;;;2.38;;